Time;durP1;ratioP1;P1;durP2;ratioP2;P2;SDS_P1;SDS_P2;PMS_P1;PMS_P2;Temp;Humidity;BMP_temperature;BMP_pressure;BME280_temperature;BME280_humidity;BME280_pressure;Samples;Min_cycle;Max_cycle;Signal;HPM_P1;HPM_P2
2023/12/04 00:02:13;;;;;;;19.90;12.30;;;;;;;-1.16;85.98;100586.05;131462;1253;196008;-79
2023/12/04 00:05:19;;;;;;;24.20;13.60;;;;;;;-1.14;85.89;100586.68;131877;1257;108607;-80
2023/12/04 00:08:25;;;;;;;25.00;14.40;;;;;;;-1.20;85.86;100587.78;131835;1253;108451;-79
2023/12/04 00:11:30;;;;;;;24.90;14.00;;;;;;;-1.24;85.98;100588.33;131602;1250;108620;-80
2023/12/04 00:14:36;;;;;;;24.50;14.30;;;;;;;-1.26;85.97;100587.73;131836;1251;105692;-80
2023/12/04 00:17:41;;;;;;;24.10;12.90;;;;;;;-1.37;86.25;100589.95;131691;1251;107401;-80
2023/12/04 00:20:47;;;;;;;28.10;14.70;;;;;;;-1.40;86.20;100592.55;131775;1255;108802;-80
2023/12/04 00:23:53;;;;;;;25.50;14.60;;;;;;;-1.37;86.48;100602.20;131869;1248;107636;-81
2023/12/04 00:26:58;;;;;;;24.10;14.10;;;;;;;-1.44;86.22;100598.30;131890;1250;106998;-80
2023/12/04 00:30:05;;;;;;;24.00;13.40;;;;;;;-1.47;86.48;100609.10;131878;1254;108592;-80
2023/12/04 00:33:11;;;;;;;22.40;13.20;;;;;;;-1.48;86.41;100612.08;131834;1248;107634;-80
2023/12/04 00:36:17;;;;;;;27.10;14.30;;;;;;;-1.52;86.43;100619.42;131877;1251;108343;-80
2023/12/04 00:39:23;;;;;;;25.30;13.50;;;;;;;-1.58;86.39;100616.73;131849;1251;106591;-80
2023/12/04 00:42:29;;;;;;;22.80;12.20;;;;;;;-1.66;86.64;100622.63;131745;1251;108846;-80
2023/12/04 00:45:34;;;;;;;24.60;13.50;;;;;;;-1.70;86.85;100630.30;131903;1247;108705;-80
2023/12/04 00:48:40;;;;;;;23.80;13.20;;;;;;;-1.72;86.60;100624.11;131627;1248;108663;-79
2023/12/04 00:51:45;;;;;;;22.10;12.60;;;;;;;-1.70;86.49;100627.34;131674;1260;106571;-80
2023/12/04 00:54:51;;;;;;;21.40;11.50;;;;;;;-1.81;86.47;100634.42;131644;1260;106877;-81
2023/12/04 00:57:56;;;;;;;19.90;11.70;;;;;;;-1.93;86.84;100640.67;131811;1251;107140;-80
2023/12/04 01:01:02;;;;;;;21.50;11.50;;;;;;;-2.00;86.88;100642.35;131584;1250;106731;-80
2023/12/04 01:04:08;;;;;;;17.30;10.00;;;;;;;-2.03;87.01;100652.45;131614;1251;108621;-79
2023/12/04 01:07:13;;;;;;;18.50;10.90;;;;;;;-2.05;86.87;100658.08;131579;1263;107444;-79
2023/12/04 01:10:19;;;;;;;20.50;11.90;;;;;;;-2.02;86.94;100656.06;131614;1248;107661;-80
2023/12/04 01:13:25;;;;;;;20.80;11.20;;;;;;;-1.99;86.97;100656.42;131930;1250;106912;-80
2023/12/04 01:16:31;;;;;;;19.80;11.80;;;;;;;-1.90;86.70;100656.08;131606;1257;107471;-80
2023/12/04 01:19:36;;;;;;;22.50;11.90;;;;;;;-1.81;86.56;100653.98;131666;1260;106073;-79
2023/12/04 01:22:42;;;;;;;19.60;11.30;;;;;;;-1.84;85.97;100659.14;131811;1250;108524;-80
2023/12/04 01:25:47;;;;;;;16.10;9.20;;;;;;;-1.93;85.88;100655.52;131819;1248;107457;-80
2023/12/04 01:28:53;;;;;;;17.70;10.10;;;;;;;-1.90;85.98;100664.84;131598;1251;108618;-80
2023/12/04 01:31:58;;;;;;;18.20;10.30;;;;;;;-1.86;85.68;100670.74;131851;1251;106563;-80
2023/12/04 01:35:04;;;;;;;15.70;9.70;;;;;;;-1.81;85.36;100670.54;131860;1248;106521;-80
2023/12/04 01:38:10;;;;;;;16.00;9.80;;;;;;;-1.82;84.93;100671.99;131813;1248;108694;-80
2023/12/04 01:41:15;;;;;;;19.60;10.50;;;;;;;-1.91;85.17;100676.36;131830;1251;107746;-79
2023/12/04 01:44:22;;;;;;;17.00;10.10;;;;;;;-1.93;85.22;100677.30;131637;1248;107742;-80
2023/12/04 01:47:27;;;;;;;18.90;10.90;;;;;;;-1.99;85.11;100672.48;131656;1250;108745;-80
2023/12/04 01:50:36;;;;;;;21.30;10.70;;;;;;;-2.08;85.25;100670.05;131554;1259;108448;-81
2023/12/04 01:53:43;;;;;;;18.70;10.00;;;;;;;-2.10;85.66;100668.58;131675;1251;107357;-80
2023/12/04 01:56:49;;;;;;;17.40;9.20;;;;;;;-2.04;85.84;100661.35;131907;1250;106191;-81
2023/12/04 01:59:56;;;;;;;18.30;10.30;;;;;;;-1.93;85.51;100659.02;131878;1251;108660;-80
2023/12/04 02:03:02;;;;;;;20.50;10.40;;;;;;;-1.90;85.13;100658.54;131766;1254;108624;-81
2023/12/04 02:06:10;;;;;;;19.50;10.40;;;;;;;-1.86;85.20;100659.61;131913;1250;108240;-79
2023/12/04 02:09:16;;;;;;;18.30;10.70;;;;;;;-1.83;85.26;100664.88;131616;1264;108504;-81
2023/12/04 02:12:21;;;;;;;21.60;11.30;;;;;;;-1.82;85.13;100664.83;131852;1250;108521;-80
2023/12/04 02:15:27;;;;;;;19.80;10.80;;;;;;;-1.79;85.37;100669.05;131805;1250;106778;-80
2023/12/04 02:18:33;;;;;;;18.30;10.50;;;;;;;-1.76;85.11;100667.20;131668;1260;107422;-81
2023/12/04 02:21:39;;;;;;;20.90;11.00;;;;;;;-1.79;85.05;100664.50;131889;1250;108489;-80
2023/12/04 02:24:44;;;;;;;18.20;10.50;;;;;;;-1.82;85.34;100668.29;131835;1248;108708;-80
2023/12/04 02:27:53;;;;;;;22.30;12.30;;;;;;;-1.81;85.20;100671.23;131590;1248;106436;-80
2023/12/04 02:31:02;;;;;;;23.70;12.60;;;;;;;-1.83;85.06;100675.66;132021;1255;107040;-81
2023/12/04 02:34:09;;;;;;;22.50;11.00;;;;;;;-1.81;85.41;100667.20;131580;1260;106555;-80
2023/12/04 02:37:15;;;;;;;19.60;10.10;;;;;;;-1.73;85.15;100669.33;131667;1251;108541;-79
2023/12/04 02:40:21;;;;;;;20.30;10.50;;;;;;;-1.61;85.24;100665.88;131547;1251;107706;-79
2023/12/04 02:43:27;;;;;;;19.00;10.70;;;;;;;-1.55;84.81;100665.60;131594;1257;107393;-81
2023/12/04 02:46:32;;;;;;;21.10;11.40;;;;;;;-1.49;84.94;100663.98;131950;1248;108394;-80
2023/12/04 02:49:38;;;;;;;20.10;11.60;;;;;;;-1.45;85.03;100663.92;131883;1250;108596;-80
2023/12/04 02:52:44;;;;;;;17.70;11.40;;;;;;;-1.41;84.90;100668.14;131850;1251;106542;-80
2023/12/04 02:55:49;;;;;;;30.60;17.10;;;;;;;-1.41;84.62;100666.38;131841;1248;108686;-80
2023/12/04 02:58:55;;;;;;;31.70;13.70;;;;;;;-1.42;84.50;100667.34;131580;1252;107707;-80
2023/12/04 03:02:00;;;;;;;33.40;14.60;;;;;;;-1.48;84.55;100668.29;131667;1254;108621;-79
2023/12/04 03:05:07;;;;;;;315.30;105.60;;;;;;;-1.55;84.54;100672.21;131589;1250;107531;-80
2023/12/04 03:08:13;;;;;;;273.40;96.10;;;;;;;-1.56;84.68;100670.38;131791;1251;108421;-82
2023/12/04 03:11:18;;;;;;;261.60;87.70;;;;;;;-1.59;84.77;100674.16;131666;1247;106293;-80
2023/12/04 03:14:24;;;;;;;41.70;22.60;;;;;;;-1.61;84.79;100681.89;131917;1248;108421;-80
2023/12/04 03:17:29;;;;;;;23.70;13.20;;;;;;;-1.65;84.54;100682.92;131777;1247;107310;-78
2023/12/04 03:20:35;;;;;;;31.90;18.20;;;;;;;-1.66;84.40;100682.27;131697;1248;108697;-80
2023/12/04 03:23:41;;;;;;;22.00;13.00;;;;;;;-1.60;84.77;100678.55;131621;1251;108548;-80
2023/12/04 03:26:46;;;;;;;25.70;16.00;;;;;;;-1.52;84.65;100681.36;131567;1248;107637;-80
2023/12/04 03:29:52;;;;;;;22.70;13.00;;;;;;;-1.47;84.63;100686.20;131881;1248;105991;-79
2023/12/04 03:32:58;;;;;;;26.90;17.30;;;;;;;-1.44;84.61;100691.29;131746;1251;107557;-80
2023/12/04 03:36:04;;;;;;;26.30;17.30;;;;;;;-1.43;84.25;100699.98;131965;1251;107741;-78
2023/12/04 03:39:09;;;;;;;26.50;16.50;;;;;;;-1.47;84.04;100694.39;131692;1264;106913;-80
2023/12/04 03:42:15;;;;;;;24.40;13.50;;;;;;;-1.50;84.20;100697.48;131650;1248;107454;-82
2023/12/04 03:45:21;;;;;;;25.90;16.20;;;;;;;-1.53;84.16;100701.13;132012;1247;106813;-80
2023/12/04 03:48:26;;;;;;;22.00;13.50;;;;;;;-1.56;84.24;100700.57;131811;1247;108346;-79
2023/12/04 03:51:32;;;;;;;22.90;14.00;;;;;;;-1.60;84.15;100699.83;131859;1251;108570;-78
2023/12/04 03:54:37;;;;;;;24.80;13.40;;;;;;;-1.65;84.16;100694.09;133095;1246;107177;-79
2023/12/04 03:57:45;;;;;;;24.50;12.90;;;;;;;-1.67;84.25;100689.66;131686;1250;106610;-79
2023/12/04 04:00:50;;;;;;;25.50;13.80;;;;;;;-1.69;84.18;100694.10;131647;1251;107700;-79
2023/12/04 04:03:56;;;;;;;20.10;11.60;;;;;;;-1.65;84.25;100694.80;131701;1248;106889;-79
2023/12/04 04:07:01;;;;;;;23.90;13.70;;;;;;;-1.60;84.11;100691.98;131487;1250;106541;-79
2023/12/04 04:10:08;;;;;;;25.70;15.60;;;;;;;-1.52;84.25;100693.94;131608;1248;107017;-78
2023/12/04 04:13:14;;;;;;;25.30;14.40;;;;;;;-1.46;84.13;100697.33;131615;1270;107589;-79
2023/12/04 04:16:19;;;;;;;22.80;13.70;;;;;;;-1.45;84.02;100695.02;131616;1250;106738;-81
2023/12/04 04:19:25;;;;;;;333.80;107.50;;;;;;;-1.44;83.89;100696.52;131660;1262;108435;-79
2023/12/04 04:22:34;;;;;;;146.60;45.70;;;;;;;-1.43;83.79;100695.61;131663;1248;107628;-79
2023/12/04 04:25:39;;;;;;;260.20;71.20;;;;;;;-1.49;83.51;100696.59;131677;1248;106372;-80
2023/12/04 04:28:45;;;;;;;230.00;66.30;;;;;;;-1.53;83.68;100698.15;131717;1250;107684;-80
2023/12/04 04:31:51;;;;;;;158.30;47.00;;;;;;;-1.56;83.80;100700.05;131631;1250;106999;-78
2023/12/04 04:34:56;;;;;;;376.00;97.50;;;;;;;-1.56;83.92;100695.84;131619;1248;108351;-80
2023/12/04 04:38:02;;;;;;;198.70;52.90;;;;;;;-1.58;84.02;100694.86;131758;1247;106280;-79
2023/12/04 04:41:08;;;;;;;391.90;95.40;;;;;;;-1.59;83.81;100700.85;131556;1251;107679;-78
2023/12/04 04:44:13;;;;;;;516.50;134.80;;;;;;;-1.59;83.94;100701.90;131587;1250;108292;-79
2023/12/04 04:47:19;;;;;;;861.10;251.40;;;;;;;-1.59;83.97;100703.08;131714;1251;108521;-80
2023/12/04 04:50:24;;;;;;;815.80;251.10;;;;;;;-1.54;83.92;100702.73;131637;1250;106345;-79
2023/12/04 04:53:30;;;;;;;585.60;173.40;;;;;;;-1.44;83.87;100707.20;131608;1251;108618;-79
2023/12/04 04:56:36;;;;;;;953.40;326.70;;;;;;;-1.36;83.75;100706.14;131589;1248;106501;-80
2023/12/04 04:59:41;;;;;;;636.30;218.30;;;;;;;-1.29;83.37;100706.35;131630;1250;108640;-80
2023/12/04 05:02:47;;;;;;;325.70;100.10;;;;;;;-1.27;83.55;100699.14;131767;1260;109011;-80
2023/12/04 05:05:52;;;;;;;222.20;84.00;;;;;;;-1.26;83.35;100697.88;131787;1250;109002;-79
2023/12/04 05:08:58;;;;;;;290.00;139.70;;;;;;;-1.25;83.43;100697.81;131561;1263;108617;-79
2023/12/04 05:12:04;;;;;;;126.00;56.10;;;;;;;-1.27;83.27;100696.48;131652;1247;107656;-78
2023/12/04 05:15:11;;;;;;;58.30;26.70;;;;;;;-1.29;83.43;100697.47;131663;1250;107519;-79
2023/12/04 05:18:16;;;;;;;43.90;22.10;;;;;;;-1.31;83.46;100696.35;131666;1250;106845;-79
2023/12/04 05:21:23;;;;;;;89.50;39.60;;;;;;;-1.34;83.45;100706.59;131631;1247;107590;-79
2023/12/04 05:24:28;;;;;;;332.60;105.70;;;;;;;-1.37;83.31;100710.23;131538;1248;107721;-79
2023/12/04 05:27:34;;;;;;;437.10;133.10;;;;;;;-1.40;83.60;100705.43;131637;1251;108625;-80
2023/12/04 05:30:39;;;;;;;212.70;59.10;;;;;;;-1.41;83.47;100706.73;131594;1248;106600;-79
2023/12/04 05:33:45;;;;;;;136.10;38.60;;;;;;;-1.44;83.72;100704.02;131674;1250;107664;-79
2023/12/04 05:36:51;;;;;;;109.70;36.70;;;;;;;-1.38;83.63;100701.55;131555;1250;106501;-80
2023/12/04 05:39:56;;;;;;;133.90;41.30;;;;;;;-1.32;83.72;100704.58;131567;1250;106222;-78
2023/12/04 05:43:02;;;;;;;211.10;63.50;;;;;;;-1.24;83.62;100705.44;131598;1250;107064;-80
2023/12/04 05:46:07;;;;;;;420.90;128.40;;;;;;;-1.17;83.72;100708.48;131624;1250;107665;-79
2023/12/04 05:49:13;;;;;;;183.50;52.50;;;;;;;-1.11;83.38;100710.51;131732;1246;107273;-79
2023/12/04 05:52:19;;;;;;;104.30;34.70;;;;;;;-1.12;83.44;100712.25;131637;1254;106514;-79
2023/12/04 05:55:24;;;;;;;105.70;38.40;;;;;;;-1.09;83.38;100711.07;131720;1263;108366;-78
2023/12/04 05:58:30;;;;;;;130.00;49.60;;;;;;;-1.09;83.35;100710.92;131596;1248;106561;-78
2023/12/04 06:01:35;;;;;;;75.20;29.40;;;;;;;-1.08;83.15;100715.41;131674;1266;107652;-79
2023/12/04 06:04:41;;;;;;;82.00;32.80;;;;;;;-1.09;83.24;100716.84;131614;1250;108090;-80
2023/12/04 06:07:47;;;;;;;406.40;129.50;;;;;;;-1.12;83.24;100717.16;131565;1250;107624;-79
2023/12/04 06:10:52;;;;;;;364.80;144.70;;;;;;;-1.16;83.19;100718.05;131597;1248;106636;-80
2023/12/04 06:13:58;;;;;;;283.00;171.00;;;;;;;-1.18;83.32;100721.45;131547;1260;107866;-79
2023/12/04 06:17:03;;;;;;;1218.00;855.60;;;;;;;-1.22;83.04;100719.83;131606;1248;107718;-80
2023/12/04 06:20:11;;;;;;;596.50;445.60;;;;;;;-1.24;83.25;100720.98;131625;1248;107753;-79
2023/12/04 06:23:18;;;;;;;81.80;65.50;;;;;;;-1.24;83.37;100722.55;131545;1248;106350;-79
2023/12/04 06:26:24;;;;;;;37.50;19.50;;;;;;;-1.23;83.39;100719.74;131548;1251;107679;-79
2023/12/04 06:29:31;;;;;;;290.60;120.30;;;;;;;-1.21;83.52;100715.41;131547;1254;106319;-79
2023/12/04 06:32:37;;;;;;;283.90;138.10;;;;;;;-1.14;83.43;100716.02;131638;1248;106299;-80
2023/12/04 06:35:43;;;;;;;61.60;34.50;;;;;;;-1.07;83.25;100722.70;131617;1251;107606;-79
2023/12/04 06:38:52;;;;;;;68.80;39.10;;;;;;;-1.00;83.20;100723.10;131601;1263;106477;-79
2023/12/04 06:41:59;;;;;;;32.80;18.70;;;;;;;-0.94;83.30;100721.59;131480;1248;107694;-80
2023/12/04 06:45:06;;;;;;;28.70;16.00;;;;;;;-0.88;83.01;100721.00;131587;1250;108546;-78
2023/12/04 06:48:14;;;;;;;26.70;15.50;;;;;;;-0.86;83.17;100723.15;131712;1250;107716;-78
2023/12/04 06:51:19;;;;;;;34.10;18.80;;;;;;;-0.82;83.26;100723.87;131579;1248;106395;-79
2023/12/04 06:54:25;;;;;;;30.90;17.00;;;;;;;-0.80;82.88;100721.99;131532;1248;107109;-78
2023/12/04 06:57:31;;;;;;;33.70;18.20;;;;;;;-0.81;83.05;100723.62;131593;1248;106500;-77
2023/12/04 07:00:36;;;;;;;28.00;13.80;;;;;;;-0.80;82.99;100725.87;131505;1247;107288;-76
2023/12/04 07:03:42;;;;;;;23.50;12.20;;;;;;;-0.81;82.75;100732.56;131620;1251;108574;-77
2023/12/04 07:06:49;;;;;;;24.10;12.70;;;;;;;-0.83;82.88;100731.08;131544;1251;107857;-77
2023/12/04 07:09:54;;;;;;;25.60;12.90;;;;;;;-0.85;83.00;100729.76;131592;1248;108608;-74
2023/12/04 07:13:00;;;;;;;23.80;13.10;;;;;;;-0.87;82.63;100729.54;131457;1250;106864;-75
2023/12/04 07:16:07;;;;;;;26.50;13.20;;;;;;;-0.87;82.97;100737.67;131594;1248;107608;-78
2023/12/04 07:19:14;;;;;;;33.00;15.30;;;;;;;-0.86;82.84;100740.11;131372;1250;107656;-77
2023/12/04 07:22:20;;;;;;;30.80;15.40;;;;;;;-0.86;82.94;100737.80;131545;1248;109372;-77
2023/12/04 07:25:25;;;;;;;29.60;14.00;;;;;;;-0.80;82.78;100740.52;131580;1250;107784;-77
2023/12/04 07:28:31;;;;;;;30.90;14.20;;;;;;;-0.70;82.83;100739.23;131613;1248;108942;-76
2023/12/04 07:31:37;;;;;;;32.00;17.40;;;;;;;-0.64;82.72;100741.58;131591;1250;107410;-77
2023/12/04 07:34:42;;;;;;;186.90;80.80;;;;;;;-0.54;82.82;100745.83;131538;1248;107701;-76
2023/12/04 07:37:48;;;;;;;114.70;46.90;;;;;;;-0.47;82.68;100745.50;131555;1248;107857;-76
2023/12/04 07:40:54;;;;;;;288.80;100.40;;;;;;;-0.37;82.79;100743.33;131612;1250;105394;-78
2023/12/04 07:43:59;;;;;;;468.30;188.40;;;;;;;-0.31;82.60;100744.25;131641;1248;108595;-76
2023/12/04 07:47:05;;;;;;;317.20;102.40;;;;;;;-0.27;82.61;100749.66;131621;1250;108487;-76
2023/12/04 07:50:11;;;;;;;227.20;74.40;;;;;;;-0.26;82.38;100748.73;131543;1248;107567;-76
2023/12/04 07:53:17;;;;;;;313.20;110.00;;;;;;;-0.26;82.53;100745.06;131569;1247;107752;-77
2023/12/04 07:56:23;;;;;;;519.70;197.60;;;;;;;-0.22;82.28;100743.48;131570;1251;107547;-77
2023/12/04 07:59:28;;;;;;;355.80;110.50;;;;;;;-0.15;82.42;100748.56;131690;1247;106574;-77
2023/12/04 08:02:34;;;;;;;662.40;262.40;;;;;;;-0.10;82.33;100752.71;131704;1270;107165;-77
2023/12/04 08:05:39;;;;;;;419.00;130.30;;;;;;;-0.07;82.14;100751.17;131648;1248;108239;-76
2023/12/04 08:08:45;;;;;;;534.40;207.80;;;;;;;-0.06;82.15;100748.13;131616;1248;106784;-77
2023/12/04 08:11:50;;;;;;;256.10;80.20;;;;;;;-0.01;81.95;100750.20;131680;1247;108323;-77
2023/12/04 08:14:56;;;;;;;230.10;76.50;;;;;;;0.04;81.97;100749.42;131533;1248;107703;-77
2023/12/04 08:18:02;;;;;;;309.90;138.30;;;;;;;0.13;81.97;100746.21;131555;1248;107674;-80
2023/12/04 08:21:09;;;;;;;187.20;81.90;;;;;;;0.16;81.60;100748.50;131662;1247;106966;-77
2023/12/04 08:24:17;;;;;;;527.50;256.50;;;;;;;0.22;81.92;100752.20;131570;1248;107407;-77
2023/12/04 08:27:23;;;;;;;448.10;192.80;;;;;;;0.28;81.79;100753.35;131671;1247;106734;-77
2023/12/04 08:30:28;;;;;;;357.30;129.20;;;;;;;0.32;81.52;100757.19;131674;1248;108629;-78
2023/12/04 08:33:34;;;;;;;217.60;92.50;;;;;;;0.37;81.83;100753.41;131674;1248;108457;-77
2023/12/04 08:36:40;;;;;;;102.80;42.60;;;;;;;0.46;81.60;100758.93;131946;1247;106532;-79
2023/12/04 08:39:45;;;;;;;86.70;38.80;;;;;;;0.57;81.49;100757.67;134658;1248;107593;-77
2023/12/04 08:42:51;;;;;;;130.10;68.00;;;;;;;0.72;81.34;100759.20;131567;1247;106472;-79
2023/12/04 08:45:57;;;;;;;305.70;118.40;;;;;;;0.88;81.35;100761.55;131578;1248;107286;-79
2023/12/04 08:49:02;;;;;;;477.50;203.70;;;;;;;1.00;81.07;100762.69;131624;1248;106836;-79
2023/12/04 08:52:08;;;;;;;404.30;151.80;;;;;;;1.09;81.00;100771.36;131607;1250;106419;-78
2023/12/04 08:55:14;;;;;;;581.90;257.30;;;;;;;1.14;81.04;100774.22;131687;1248;107625;-78
2023/12/04 08:58:19;;;;;;;457.30;182.60;;;;;;;1.14;80.71;100768.26;131701;1264;108551;-78
2023/12/04 09:01:25;;;;;;;346.90;155.00;;;;;;;1.12;80.44;100772.23;131738;1248;107092;-78
2023/12/04 09:04:31;;;;;;;117.30;48.30;;;;;;;1.11;80.41;100770.33;131822;1247;107131;-79
2023/12/04 09:07:37;;;;;;;68.00;31.50;;;;;;;1.18;80.86;100770.52;131776;1248;107704;-79
2023/12/04 09:10:43;;;;;;;490.00;190.20;;;;;;;1.30;80.82;100774.13;131794;1248;108613;-80
2023/12/04 09:13:48;;;;;;;519.00;198.50;;;;;;;1.37;80.70;100777.59;131742;1250;108667;-78
2023/12/04 09:16:54;;;;;;;452.70;161.50;;;;;;;1.44;80.66;100779.29;131645;1247;109419;-80
2023/12/04 09:20:00;;;;;;;503.90;221.30;;;;;;;1.53;80.47;100778.99;131685;1247;108124;-76
2023/12/04 09:23:05;;;;;;;329.50;124.60;;;;;;;1.57;80.40;100776.86;131730;1247;108659;-78
2023/12/04 09:26:11;;;;;;;391.30;155.90;;;;;;;1.64;80.11;100777.39;131594;1250;106408;-77
2023/12/04 09:29:17;;;;;;;359.10;131.10;;;;;;;1.66;80.00;100777.07;131634;1250;107496;-80
2023/12/04 09:32:23;;;;;;;142.60;52.80;;;;;;;1.65;79.71;100772.61;131821;1250;107759;-78
2023/12/04 09:35:28;;;;;;;1711.00;783.50;;;;;;;1.65;79.88;100772.77;131732;1247;108773;-79
2023/12/04 09:38:35;;;;;;;599.00;226.30;;;;;;;1.70;79.99;100762.52;131605;1248;106667;-77
2023/12/04 09:41:43;;;;;;;268.10;92.30;;;;;;;1.77;79.78;100762.10;131685;1248;107575;-76
2023/12/04 09:44:53;;;;;;;126.50;47.00;;;;;;;1.84;79.61;100762.96;131560;1247;107584;-77
2023/12/04 09:47:59;;;;;;;84.40;35.40;;;;;;;1.88;79.49;100765.86;131668;1247;108667;-77
2023/12/04 09:51:06;;;;;;;148.50;70.70;;;;;;;1.89;78.57;100763.39;131598;1248;107774;-75
2023/12/04 09:54:12;;;;;;;81.70;38.50;;;;;;;1.80;78.55;100767.37;131698;1248;108600;-76
2023/12/04 09:57:19;;;;;;;133.70;69.20;;;;;;;1.81;78.76;100767.14;131609;1253;108470;-77
2023/12/04 10:00:26;;;;;;;104.10;52.50;;;;;;;1.83;78.59;100773.16;131676;1250;107756;-75
2023/12/04 10:03:32;;;;;;;102.10;55.10;;;;;;;1.83;78.58;100766.00;131697;1247;108527;-78
2023/12/04 10:06:39;;;;;;;61.60;34.00;;;;;;;1.87;78.74;100767.53;131573;1250;106489;-75
2023/12/04 10:09:47;;;;;;;114.60;67.10;;;;;;;1.91;78.35;100768.84;131657;1250;106092;-77
2023/12/04 10:12:53;;;;;;;53.70;30.80;;;;;;;1.93;78.03;100770.89;131651;1248;108574;-76
2023/12/04 10:15:58;;;;;;;41.40;22.30;;;;;;;1.92;77.96;100772.70;131626;1250;107878;-77
2023/12/04 10:19:22;;;;;;;52.20;31.90;;;;;;;1.91;77.56;100769.20;131592;1263;108679;-77
2023/12/04 10:22:28;;;;;;;34.90;20.20;;;;;;;1.85;77.53;100768.70;131672;1250;107190;-77
2023/12/04 10:25:34;;;;;;;50.70;31.20;;;;;;;1.85;77.44;100765.55;131606;1248;106855;-76
2023/12/04 10:28:40;;;;;;;51.30;29.00;;;;;;;1.85;77.60;100765.88;131586;1251;108543;-77
2023/12/04 10:31:45;;;;;;;54.20;32.00;;;;;;;1.86;77.50;100764.93;131670;1248;106653;-77
2023/12/04 10:34:51;;;;;;;119.40;68.00;;;;;;;1.88;77.04;100769.55;131669;1247;108813;-77
2023/12/04 10:37:59;;;;;;;49.50;28.10;;;;;;;1.82;76.72;100764.45;131563;1266;107681;-77
2023/12/04 10:41:14;;;;;;;99.10;51.20;;;;;;;1.83;77.12;100764.56;131560;1248;107762;-77
2023/12/04 10:44:20;;;;;;;57.40;31.90;;;;;;;1.87;77.41;100767.02;131642;1250;107657;-76
2023/12/04 10:47:26;;;;;;;44.60;26.30;;;;;;;1.90;77.01;100762.27;131588;1247;107674;-77
2023/12/04 10:50:32;;;;;;;71.00;47.20;;;;;;;1.96;77.34;100758.76;131532;1250;108803;-76
2023/12/04 10:53:40;;;;;;;60.80;37.60;;;;;;;1.98;76.58;100756.94;131625;1263;106397;-77
2023/12/04 10:56:50;;;;;;;41.10;25.60;;;;;;;1.94;76.88;100758.53;131603;1248;108715;-76
2023/12/04 10:59:59;;;;;;;39.70;23.50;;;;;;;1.91;76.49;100756.23;131624;1248;107554;-77
2023/12/04 11:03:09;;;;;;;37.00;21.40;;;;;;;1.89;76.52;100758.44;131618;1263;108498;-76
2023/12/04 11:06:19;;;;;;;92.30;50.50;;;;;;;1.90;76.69;100761.38;131613;1250;107734;-77
2023/12/04 11:09:26;;;;;;;65.20;33.60;;;;;;;1.88;76.75;100757.67;131602;1249;107661;-77
2023/12/04 11:12:33;;;;;;;58.10;33.90;;;;;;;1.86;76.32;100758.45;131569;1248;108590;-76
2023/12/04 11:15:43;;;;;;;48.90;25.10;;;;;;;1.76;75.35;100757.79;131651;1248;108346;-76
2023/12/04 11:18:52;;;;;;;42.80;22.80;;;;;;;1.62;75.90;100759.27;131615;1263;108372;-76
2023/12/04 11:21:59;;;;;;;36.80;20.00;;;;;;;1.48;75.34;100755.63;131617;1248;108423;-76
2023/12/04 11:25:07;;;;;;;34.80;19.80;;;;;;;1.38;76.08;100752.98;131592;1248;106489;-77
2023/12/04 11:28:15;;;;;;;35.90;20.70;;;;;;;1.32;75.89;100751.58;131578;1248;108416;-76
2023/12/04 11:31:21;;;;;;;42.30;21.60;;;;;;;1.24;75.83;100750.60;131614;1248;108361;-76
2023/12/04 11:34:27;;;;;;;40.60;24.40;;;;;;;1.14;75.17;100749.15;131682;1248;108493;-77
2023/12/04 11:37:33;;;;;;;335.40;138.10;;;;;;;1.02;75.49;100749.47;131622;1248;106290;-76
2023/12/04 11:40:41;;;;;;;483.90;222.50;;;;;;;1.03;76.05;100745.40;131613;1250;108744;-76
2023/12/04 11:43:47;;;;;;;531.30;222.50;;;;;;;1.05;75.69;100745.41;131573;1250;108022;-77
2023/12/04 11:47:05;;;;;;;540.30;203.70;;;;;;;1.08;75.69;100748.09;131736;1248;108066;-77
2023/12/04 11:50:13;;;;;;;222.20;78.60;;;;;;;1.14;75.63;100749.00;131710;1250;107041;-77
2023/12/04 11:53:20;;;;;;;186.80;66.30;;;;;;;1.16;75.64;100748.68;131669;1250;107356;-76
2023/12/04 11:56:25;;;;;;;129.50;47.70;;;;;;;1.20;75.60;100746.61;131579;1251;106436;-76
2023/12/04 11:59:35;;;;;;;348.60;130.10;;;;;;;1.18;75.50;100738.45;131566;1248;107827;-76
2023/12/04 12:02:47;;;;;;;628.10;282.90;;;;;;;1.17;75.19;100732.37;131409;1248;107427;-76
2023/12/04 12:05:53;;;;;;;325.90;118.70;;;;;;;1.13;75.52;100731.67;131607;1248;106812;-76
2023/12/04 12:08:59;;;;;;;321.80;127.40;;;;;;;1.11;75.38;100734.61;131509;1248;107771;-77
2023/12/04 12:12:06;;;;;;;319.10;154.20;;;;;;;1.07;75.34;100726.05;131750;1248;106793;-77
2023/12/04 12:15:13;;;;;;;181.00;90.70;;;;;;;0.99;75.41;100726.29;131553;1250;106695;-77
2023/12/04 12:18:19;;;;;;;81.80;39.70;;;;;;;0.96;75.45;100729.27;131539;1250;108795;-77
2023/12/04 12:21:25;;;;;;;52.00;27.70;;;;;;;0.94;75.24;100733.04;131543;1251;108435;-76
2023/12/04 12:24:31;;;;;;;42.40;21.50;;;;;;;0.91;75.10;100724.98;131555;1250;106371;-76
2023/12/04 12:27:37;;;;;;;36.00;19.70;;;;;;;0.85;75.05;100715.98;131578;1258;108692;-76
2023/12/04 12:30:45;;;;;;;36.50;20.70;;;;;;;0.80;74.90;100713.64;131604;1248;106426;-76
2023/12/04 12:33:52;;;;;;;34.30;18.90;;;;;;;0.76;75.12;100709.48;131698;1248;107568;-78
2023/12/04 12:36:57;;;;;;;36.90;19.80;;;;;;;0.73;75.02;100705.41;131594;1250;107464;-77
2023/12/04 12:40:04;;;;;;;31.70;18.00;;;;;;;0.66;74.96;100706.12;131531;1248;106603;-77
2023/12/04 12:43:11;;;;;;;35.30;18.70;;;;;;;0.58;74.75;100699.16;131520;1260;106684;-76
2023/12/04 12:46:18;;;;;;;34.70;18.70;;;;;;;0.51;74.82;100703.02;131612;1250;105709;-77
2023/12/04 12:49:24;;;;;;;37.70;20.20;;;;;;;0.43;74.92;100703.77;131605;1250;107387;-77
2023/12/04 12:52:30;;;;;;;38.00;20.80;;;;;;;0.37;74.90;100701.45;131699;1251;107727;-77
2023/12/04 12:55:38;;;;;;;38.80;21.50;;;;;;;0.33;75.05;100706.04;131708;1250;106311;-77
2023/12/04 12:58:44;;;;;;;38.50;20.70;;;;;;;0.31;75.07;100698.79;131641;1250;108488;-76
2023/12/04 13:01:51;;;;;;;38.60;21.50;;;;;;;0.27;74.83;100698.45;131617;1250;106993;-75
2023/12/04 13:04:58;;;;;;;41.00;21.50;;;;;;;0.21;74.94;100695.80;131626;1248;106578;-78
2023/12/04 13:08:04;;;;;;;39.10;21.20;;;;;;;0.10;74.77;100696.31;131571;1248;108682;-76
2023/12/04 13:11:09;;;;;;;42.00;22.60;;;;;;;0.04;74.69;100699.42;131635;1250;107535;-76
2023/12/04 13:14:15;;;;;;;39.50;21.70;;;;;;;-0.02;74.68;100692.52;131583;1250;108671;-77
2023/12/04 13:17:20;;;;;;;44.40;23.10;;;;;;;-0.07;74.67;100690.13;131613;1248;107752;-76
2023/12/04 13:20:26;;;;;;;38.50;20.90;;;;;;;-0.09;74.85;100684.98;131701;1247;108621;-76
2023/12/04 13:23:31;;;;;;;40.80;21.80;;;;;;;-0.11;74.74;100688.23;131627;1263;107005;-77
2023/12/04 13:26:37;;;;;;;42.40;22.30;;;;;;;-0.11;74.40;100684.23;131608;1248;107055;-76
2023/12/04 13:29:43;;;;;;;37.90;21.00;;;;;;;-0.14;74.37;100683.86;131660;1250;108182;-76
2023/12/04 13:32:50;;;;;;;40.40;21.70;;;;;;;-0.18;74.65;100684.73;131671;1250;107646;-76
2023/12/04 13:35:55;;;;;;;40.70;21.00;;;;;;;-0.21;74.61;100681.55;131685;1251;108525;-76
2023/12/04 13:39:01;;;;;;;39.50;21.80;;;;;;;-0.20;74.73;100682.73;131449;1250;107910;-77
2023/12/04 13:45:31;;;;;;;40.00;22.40;;;;;;;-0.21;74.57;100677.88;131654;1250;106883;-76
2023/12/04 13:48:40;;;;;;;64.10;31.00;;;;;;;-0.21;74.96;100679.45;131628;1248;106218;-76